Time;durP1;ratioP1;P1;durP2;ratioP2;P2;SDS_P1;SDS_P2;PMS_P1;PMS_P2;Temp;Humidity;BMP_temperature;BMP_pressure;BME280_temperature;BME280_humidity;BME280_pressure;Samples;Min_cycle;Max_cycle;Signal;HPM_P1;HPM_P2
2022/12/15 00:38:54;;;;;;;;;;;;;;;27.48;24.84;100195.22;5017687;28;1136;-36
2022/12/15 00:41:20;;;;;;;;;;;;;;;27.62;24.88;100186.16;5016837;28;1148;-35
2022/12/15 00:43:45;;;;;;;;;;;;;;;28.27;23.84;100181.44;5006172;28;1152;-38
2022/12/15 00:48:54;;;;;;;;;;;;;;;27.41;25.21;100170.06;5017244;28;971;-33
2022/12/15 00:51:19;;;;;;;;;;;;;;;27.42;25.33;100171.72;5017918;28;1148;-35
2022/12/15 01:21:05;;;;;;;;;;;;;;;27.73;24.71;100098.31;5017253;28;1171;-36
2022/12/15 01:23:30;;;;;;;;;;;;;;;27.41;25.27;100095.25;5017288;28;1112;-36
2022/12/15 01:25:56;;;;;;;;;;;;;;;27.63;25.01;100098.66;5017295;28;1148;-36
2022/12/15 01:28:21;;;;;;;;;;;;;;;27.94;24.48;100101.06;5016355;28;1357;-37
2022/12/15 01:30:46;;;;;;;;;;;;;;;27.85;24.59;100095.00;5006805;28;1188;-32
2022/12/15 01:33:12;;;;;;;;;;;;;;;27.45;25.25;100095.69;5016060;28;1195;-33
2022/12/15 01:35:37;;;;;;;;;;;;;;;27.65;25.00;100084.94;5017007;28;1914;-32
2022/12/15 01:38:03;;;;;;;;;;;;;;;28.23;24.58;100083.63;5016816;28;1136;-35
2022/12/15 01:40:48;;;;;;;;;;;;;;;27.88;24.62;100075.69;5016326;28;1148;-37
2022/12/15 01:43:17;;;;;;;;;;;;;;;27.56;25.37;100076.19;5007877;28;1140;-35
2022/12/15 01:45:52;;;;;;;;;;;;;;;27.48;25.46;100076.38;5016987;28;1101;-35
2022/12/15 01:48:30;;;;;;;;;;;;;;;27.90;25.07;100061.97;5016691;28;1168;-35
2022/12/15 01:51:09;;;;;;;;;;;;;;;27.56;25.24;100057.28;5016295;28;1184;-38
2022/12/15 01:53:36;;;;;;;;;;;;;;;27.59;25.13;100056.06;5016631;28;1101;-36
2022/12/15 01:56:02;;;;;;;;;;;;;;;27.42;25.53;100061.81;5008960;28;1962;-37
2022/12/15 01:58:28;;;;;;;;;;;;;;;27.74;25.39;100061.31;5015286;28;1409;-35
2022/12/15 02:00:53;;;;;;;;;;;;;;;27.96;24.67;100056.56;5016199;28;1484;-37
2022/12/15 02:03:18;;;;;;;;;;;;;;;27.87;25.11;100055.09;5016508;28;1109;-37
2022/12/15 02:05:43;;;;;;;;;;;;;;;27.52;25.35;100047.94;5016510;28;1204;-33
2022/12/15 02:08:09;;;;;;;;;;;;;;;27.68;25.16;100043.16;5010478;28;887;-36
2022/12/15 02:10:40;;;;;;;;;;;;;;;28.44;23.95;100046.66;5015690;28;1152;-37
2022/12/15 02:13:06;;;;;;;;;;;;;;;27.81;24.79;100040.53;5015352;28;1151;-37
2022/12/15 02:15:40;;;;;;;;;;;;;;;27.61;25.54;100038.59;5016483;28;1894;-31
2022/12/15 02:18:23;;;;;;;;;;;;;;;27.63;25.50;100041.94;5008277;28;1215;-33
2022/12/15 02:20:54;;;;;;;;;;;;;;;27.93;24.71;100038.06;5011707;28;1117;-37
2022/12/15 02:23:32;;;;;;;;;;;;;;;27.83;25.13;100043.03;5015491;28;1120;-36
2022/12/15 02:26:16;;;;;;;;;;;;;;;27.35;25.66;100045.59;5016163;28;1168;-36
2022/12/15 02:28:50;;;;;;;;;;;;;;;27.58;25.77;100043.56;5016505;28;1219;-35
2022/12/15 02:34:30;;;;;;;;;;;;;;;28.18;24.91;100017.69;5015074;28;1191;-35
2022/12/15 02:36:59;;;;;;;;;;;;;;;27.61;25.46;100014.28;5013323;28;1915;-34
2022/12/15 02:39:24;;;;;;;;;;;;;;;27.71;25.25;100018.50;5017263;28;1160;-35
2022/12/15 02:41:51;;;;;;;;;;;;;;;28.01;25.19;100028.09;5020233;28;1200;-36
2022/12/15 02:44:18;;;;;;;;;;;;;;;27.84;25.27;100025.78;5014575;28;1029;-36
2022/12/15 02:46:52;;;;;;;;;;;;;;;27.46;25.61;100027.94;5018594;28;1172;-32
2022/12/15 02:49:36;;;;;;;;;;;;;;;27.63;25.67;100028.41;5019098;28;1207;-36
2022/12/15 02:52:16;;;;;;;;;;;;;;;28.22;24.78;100032.47;5019652;28;1187;-39
2022/12/15 02:54:45;;;;;;;;;;;;;;;27.82;25.44;100033.28;5015836;28;1960;-35
2022/12/15 02:57:23;;;;;;;;;;;;;;;27.61;25.79;100022.38;5020587;28;1093;-38
2022/12/15 03:00:03;;;;;;;;;;;;;;;27.72;25.58;100029.09;5018326;28;1112;-38
2022/12/15 03:02:29;;;;;;;;;;;;;;;27.90;25.16;100019.56;5017979;28;1128;-32
2022/12/15 03:04:54;;;;;;;;;;;;;;;27.91;25.13;100020.41;5018435;28;1188;-33
2022/12/15 03:07:19;;;;;;;;;;;;;;;27.50;25.96;100015.72;5018264;28;1007;-38
2022/12/15 03:09:45;;;;;;;;;;;;;;;27.51;25.98;100013.81;5017905;28;1208;-34
2022/12/15 03:12:10;;;;;;;;;;;;;;;28.15;24.86;100010.84;5019874;28;1188;-36
2022/12/15 03:14:35;;;;;;;;;;;;;;;27.53;25.96;100008.25;5019708;28;1898;-36
2022/12/15 03:17:01;;;;;;;;;;;;;;;27.65;25.56;100006.59;5019151;28;1272;-35
2022/12/15 03:19:26;;;;;;;;;;;;;;;27.56;25.73;99997.03;5019407;28;1215;-36
2022/12/15 03:21:51;;;;;;;;;;;;;;;27.93;25.41;99986.69;5019584;28;1160;-36
2022/12/15 03:24:17;;;;;;;;;;;;;;;27.97;25.24;99990.66;5018866;28;1207;-35
2022/12/15 03:26:42;;;;;;;;;;;;;;;27.79;25.66;99977.78;5019636;28;1199;-37
2022/12/15 03:29:08;;;;;;;;;;;;;;;27.39;26.28;99986.59;5019954;28;1230;-34
2022/12/15 03:31:33;;;;;;;;;;;;;;;27.61;25.91;99984.56;5015706;28;1128;-35
2022/12/15 03:33:58;;;;;;;;;;;;;;;28.24;24.76;99976.31;5018808;28;1144;-36
2022/12/15 03:36:24;;;;;;;;;;;;;;;27.33;26.34;99972.03;5019479;28;1975;-36
2022/12/15 03:38:49;;;;;;;;;;;;;;;27.56;26.23;99973.53;5019157;28;1113;-35
2022/12/15 03:41:16;;;;;;;;;;;;;;;27.56;25.89;99975.41;5019244;28;1144;-36
2022/12/15 03:43:42;;;;;;;;;;;;;;;27.81;25.48;99978.38;5017098;28;889;-37
2022/12/15 03:46:07;;;;;;;;;;;;;;;27.90;25.34;99972.75;5018877;28;1200;-37
2022/12/15 03:48:32;;;;;;;;;;;;;;;27.74;25.68;99967.56;5018991;28;1167;-35
2022/12/15 03:50:58;;;;;;;;;;;;;;;27.51;26.27;99971.44;5018473;28;1203;-35
2022/12/15 03:53:23;;;;;;;;;;;;;;;27.73;25.62;99965.06;5019157;28;1192;-35
2022/12/15 03:55:48;;;;;;;;;;;;;;;28.28;24.95;99964.03;5018084;28;1902;-35
2022/12/15 03:58:13;;;;;;;;;;;;;;;27.75;25.95;99954.88;5018865;28;1213;-34
2022/12/15 04:00:39;;;;;;;;;;;;;;;27.66;26.03;99964.22;5018722;28;1140;-38
2022/12/15 04:03:04;;;;;;;;;;;;;;;27.52;25.89;99958.78;5019186;28;1140;-37
2022/12/15 04:05:30;;;;;;;;;;;;;;;27.86;25.53;99956.97;5018381;28;1203;-37
2022/12/15 04:07:56;;;;;;;;;;;;;;;27.71;25.82;99964.47;5009361;28;1120;-32
2022/12/15 04:10:21;;;;;;;;;;;;;;;27.73;26.07;99967.75;5015714;28;1208;-39
2022/12/15 04:12:47;;;;;;;;;;;;;;;27.46;26.20;99965.81;5018715;28;1116;-38
2022/12/15 04:15:12;;;;;;;;;;;;;;;27.66;26.09;99970.44;5017277;28;1898;-36
2022/12/15 04:17:38;;;;;;;;;;;;;;;28.29;24.58;99952.19;5001382;28;1271;-29
2022/12/15 04:20:09;;;;;;;;;;;;;;;27.28;25.47;99946.69;5017667;28;818;-27
2022/12/15 04:22:44;;;;;;;;;;;;;;;26.63;27.14;99949.50;5017886;28;1187;-30
2022/12/15 05:33:52;;;;;;;;;;;;;;;26.38;27.04;99963.47;5011225;28;1010;-30
2022/12/15 05:36:18;;;;;;;;;;;;;;;26.07;27.75;99974.59;5016223;28;1910;-33
2022/12/15 05:38:43;;;;;;;;;;;;;;;26.03;27.74;99976.84;5016120;28;1171;-32
2022/12/15 05:41:08;;;;;;;;;;;;;;;26.56;27.05;99977.50;5016405;28;1191;-33
2022/12/15 05:43:34;;;;;;;;;;;;;;;26.35;27.36;99980.03;5015962;28;1109;-33
2022/12/15 05:46:03;;;;;;;;;;;;;;;26.07;27.85;99978.16;5003919;28;1794;-32
2022/12/15 05:48:28;;;;;;;;;;;;;;;26.47;27.24;99982.19;5016258;28;1132;-34
2022/12/15 05:50:53;;;;;;;;;;;;;;;26.13;27.55;99973.81;5005784;28;1133;-31
2022/12/15 05:53:18;;;;;;;;;;;;;;;26.19;27.68;99970.38;5015911;28;1299;-33
2022/12/15 05:55:44;;;;;;;;;;;;;;;26.12;27.56;99983.78;5014594;28;1961;-32
2022/12/15 05:58:09;;;;;;;;;;;;;;;26.27;27.66;99977.47;4995941;28;1196;-33
2022/12/15 06:00:34;;;;;;;;;;;;;;;26.47;27.32;99982.19;4996120;28;1192;-31
2022/12/15 06:03:01;;;;;;;;;;;;;;;26.08;28.04;99981.66;5011429;28;1283;-31
2022/12/15 06:05:26;;;;;;;;;;;;;;;26.56;27.66;99989.09;4996746;28;1168;-30
2022/12/15 06:07:52;;;;;;;;;;;;;;;26.22;27.94;99985.31;4996958;28;1137;-33
2022/12/15 06:10:17;;;;;;;;;;;;;;;26.23;28.23;99998.59;5015963;28;1096;-31
2022/12/15 06:12:42;;;;;;;;;;;;;;;26.17;28.24;99996.69;5015809;28;1109;-34
2022/12/15 06:15:08;;;;;;;;;;;;;;;26.36;27.79;100003.28;5011084;28;1903;-34
2022/12/15 06:17:33;;;;;;;;;;;;;;;26.42;28.05;100004.38;5011994;28;1219;-31
2022/12/15 06:19:58;;;;;;;;;;;;;;;26.12;28.39;100013.44;5014603;28;1154;-33
2022/12/15 06:22:24;;;;;;;;;;;;;;;26.75;27.54;100032.56;4995177;28;1077;-33
2022/12/15 06:24:49;;;;;;;;;;;;;;;26.21;28.43;100026.78;4995873;28;1276;-32
2022/12/15 06:27:15;;;;;;;;;;;;;;;26.29;27.96;100032.03;4995378;28;1204;-34
2022/12/15 06:29:40;;;;;;;;;;;;;;;26.19;28.25;100035.06;4999443;28;1243;-31
2022/12/15 06:32:05;;;;;;;;;;;;;;;26.25;28.40;100036.13;5013720;28;1046;-31
2022/12/15 06:34:31;;;;;;;;;;;;;;;26.41;28.31;100040.44;5011710;28;1108;-30
2022/12/15 06:36:56;;;;;;;;;;;;;;;26.28;28.39;100044.66;5010033;28;1906;-30
2022/12/15 06:39:21;;;;;;;;;;;;;;;26.48;27.66;100057.50;4996109;28;1216;-30
2022/12/15 06:41:46;;;;;;;;;;;;;;;26.53;27.77;100060.47;4996009;28;1164;-32
2022/12/15 06:44:12;;;;;;;;;;;;;;;26.27;28.09;100056.50;5001833;28;1184;-32
2022/12/15 06:46:38;;;;;;;;;;;;;;;26.59;27.80;100068.78;5012636;28;1810;-30
2022/12/15 06:49:03;;;;;;;;;;;;;;;26.19;28.49;100064.72;5014570;28;1139;-34
2022/12/15 06:51:29;;;;;;;;;;;;;;;26.35;28.33;100068.19;5015774;28;1128;-32
2022/12/15 06:53:55;;;;;;;;;;;;;;;26.56;27.63;100064.59;5015452;28;1465;-32
2022/12/15 06:56:27;;;;;;;;;;;;;;;26.14;28.55;100075.25;5015258;28;1938;-30
2022/12/15 06:58:52;;;;;;;;;;;;;;;26.38;28.31;100075.88;5016079;28;1136;-31
2022/12/15 07:01:18;;;;;;;;;;;;;;;26.57;27.65;100070.84;5015869;28;1092;-31
2022/12/15 07:03:43;;;;;;;;;;;;;;;26.17;28.49;100072.97;5015277;28;1117;-32
2022/12/15 07:06:09;;;;;;;;;;;;;;;26.49;28.16;100072.66;5015131;28;1132;-32
2022/12/15 07:08:34;;;;;;;;;;;;;;;26.59;27.81;100076.88;5011716;28;1212;-32
2022/12/15 07:11:01;;;;;;;;;;;;;;;26.21;28.49;100086.09;4995547;28;1208;-31
2022/12/15 07:13:26;;;;;;;;;;;;;;;26.57;28.08;100085.19;5012692;28;1196;-30
2022/12/15 07:15:52;;;;;;;;;;;;;;;26.38;28.18;100092.06;5005428;28;1902;-30
2022/12/15 07:18:17;;;;;;;;;;;;;;;26.43;27.91;100089.63;5013353;28;1249;-32
2022/12/15 07:20:43;;;;;;;;;;;;;;;26.46;28.31;100091.91;5015203;28;1171;-33
2022/12/15 07:23:08;;;;;;;;;;;;;;;26.34;28.20;100096.19;5015444;28;1120;-32
2022/12/15 07:25:36;;;;;;;;;;;;;;;26.50;28.15;100101.31;5016579;28;1176;-35
2022/12/15 07:28:02;;;;;;;;;;;;;;;26.50;28.15;100103.16;5019109;28;1322;-30
2022/12/15 07:30:27;;;;;;;;;;;;;;;26.25;28.64;100106.22;5018404;28;1183;-31
2022/12/15 07:32:52;;;;;;;;;;;;;;;26.57;28.05;100106.75;5014486;28;1334;-33
2022/12/15 07:35:18;;;;;;;;;;;;;;;26.21;28.65;100102.25;5016633;28;1969;-31
2022/12/15 07:37:43;;;;;;;;;;;;;;;26.31;28.24;100110.84;5018907;28;1132;-31
2022/12/15 07:40:08;;;;;;;;;;;;;;;26.80;27.69;100111.06;5018841;28;1108;-31
2022/12/15 07:42:33;;;;;;;;;;;;;;;26.28;28.67;100106.69;5009417;28;1184;-33
2022/12/15 07:44:59;;;;;;;;;;;;;;;26.43;28.06;100099.56;4999304;28;1818;-32
2022/12/15 07:47:24;;;;;;;;;;;;;;;26.58;27.99;100104.88;5007180;28;1101;-31
2022/12/15 07:49:49;;;;;;;;;;;;;;;26.38;28.40;100110.94;5017915;28;1212;-33
2022/12/15 07:52:15;;;;;;;;;;;;;;;26.59;28.15;100109.25;5018114;28;1231;-32
2022/12/15 07:54:41;;;;;;;;;;;;;;;26.29;28.70;100102.13;5018939;28;1137;-32
2022/12/15 07:57:06;;;;;;;;;;;;;;;26.33;28.59;100108.81;5017534;28;1879;-30
2022/12/15 07:59:34;;;;;;;;;;;;;;;26.37;28.62;100104.72;5018199;28;1212;-31
2022/12/15 08:02:00;;;;;;;;;;;;;;;26.22;28.51;100109.31;5017996;28;1140;-31
2022/12/15 08:04:26;;;;;;;;;;;;;;;26.39;28.46;100112.63;5018240;28;1140;-34
2022/12/15 08:06:54;;;;;;;;;;;;;;;26.45;28.22;100109.13;5017223;28;1096;-30
2022/12/15 08:09:19;;;;;;;;;;;;;;;26.41;28.59;100107.84;5005362;28;1232;-33
2022/12/15 08:11:45;;;;;;;;;;;;;;;26.68;28.12;100105.38;4997866;28;1224;-33
2022/12/15 08:14:10;;;;;;;;;;;;;;;26.29;28.42;100107.53;4998532;28;1148;-29
2022/12/15 08:16:36;;;;;;;;;;;;;;;26.47;28.11;100108.94;5004759;28;2451;-34
2022/12/15 08:19:05;;;;;;;;;;;;;;;26.81;27.80;100115.44;5018287;28;1152;-33
2022/12/15 08:21:31;;;;;;;;;;;;;;;26.43;28.25;100113.03;5011726;28;1210;-34
2022/12/15 08:23:56;;;;;;;;;;;;;;;26.61;28.30;100115.31;5010987;28;1109;-29
2022/12/15 08:26:22;;;;;;;;;;;;;;;26.66;27.79;100123.63;5017558;28;1141;-30
2022/12/15 08:28:47;;;;;;;;;;;;;;;26.48;28.08;100119.53;5018147;28;1120;-31
2022/12/15 08:31:13;;;;;;;;;;;;;;;26.45;28.35;100130.72;5018057;28;1061;-33
2022/12/15 08:33:39;;;;;;;;;;;;;;;26.34;28.77;100131.25;5011064;28;1197;-30
2022/12/15 08:36:05;;;;;;;;;;;;;;;26.54;28.20;100123.34;5000393;28;1899;-31
2022/12/15 08:38:30;;;;;;;;;;;;;;;26.38;28.32;100119.03;4997337;28;1267;-31
2022/12/15 08:40:56;;;;;;;;;;;;;;;26.37;28.74;100125.47;4998101;28;1259;-31
2022/12/15 08:43:21;;;;;;;;;;;;;;;26.48;28.22;100126.78;4997019;28;1152;-30
2022/12/15 08:45:46;;;;;;;;;;;;;;;26.47;28.34;100125.13;5006288;28;2473;-29
2022/12/15 08:48:12;;;;;;;;;;;;;;;26.77;28.22;100124.97;5017324;28;1104;-29
2022/12/15 08:50:37;;;;;;;;;;;;;;;27.03;27.66;100128.91;5017734;28;1088;-33
2022/12/15 08:53:02;;;;;;;;;;;;;;;26.48;28.22;100118.69;5017418;28;1088;-29
2022/12/15 08:55:27;;;;;;;;;;;;;;;26.42;28.54;100128.41;5017286;28;1875;-32
2022/12/15 08:57:53;;;;;;;;;;;;;;;26.25;28.91;100134.03;5013690;28;1120;-32
2022/12/15 09:00:18;;;;;;;;;;;;;;;26.42;28.59;100125.72;5016914;28;986;-32
2022/12/15 09:02:43;;;;;;;;;;;;;;;26.23;28.72;100127.16;5017342;28;1120;-31
2022/12/15 09:05:09;;;;;;;;;;;;;;;26.40;28.29;100133.16;4997508;28;1129;-33
2022/12/15 09:07:34;;;;;;;;;;;;;;;26.19;28.79;100133.97;4996998;28;1258;-31
2022/12/15 09:09:59;;;;;;;;;;;;;;;26.57;28.28;100135.59;5008621;28;1291;-31
2022/12/15 09:12:25;;;;;;;;;;;;;;;27.25;27.38;100145.03;5012771;28;923;-31
2022/12/15 09:14:50;;;;;;;;;;;;;;;27.51;26.83;100143.50;5011739;28;1980;-31
2022/12/15 09:17:15;;;;;;;;;;;;;;;27.18;27.38;100142.28;5015068;28;1097;-32
2022/12/15 09:19:40;;;;;;;;;;;;;;;27.22;27.59;100151.66;5016647;28;1233;-30
2022/12/15 09:22:06;;;;;;;;;;;;;;;27.57;26.90;100155.38;5009163;28;1108;-36
2022/12/15 09:24:32;;;;;;;;;;;;;;;27.28;27.16;100138.41;5013531;28;1203;-30
2022/12/15 09:26:57;;;;;;;;;;;;;;;27.35;27.41;100136.56;5013218;28;1180;-32
2022/12/15 09:29:22;;;;;;;;;;;;;;;27.13;27.60;100139.34;5016042;28;1157;-30
2022/12/15 09:31:47;;;;;;;;;;;;;;;27.52;26.76;100139.78;5015967;28;1326;-31
2022/12/15 09:34:14;;;;;;;;;;;;;;;27.89;26.31;100150.34;5013070;28;1176;-32
2022/12/15 09:36:39;;;;;;;;;;;;;;;27.56;26.40;100146.44;5015386;28;1972;-33
2022/12/15 09:39:05;;;;;;;;;;;;;;;27.14;27.10;100160.75;5012735;28;1216;-31
2022/12/15 09:41:33;;;;;;;;;;;;;;;27.47;27.13;100159.28;4996183;28;1216;-35
2022/12/15 09:44:12;;;;;;;;;;;;;;;27.87;26.29;100165.94;5008865;28;1160;-30
2022/12/15 09:46:37;;;;;;;;;;;;;;;27.89;26.62;100158.47;5011308;28;1928;-34
2022/12/15 09:49:04;;;;;;;;;;;;;;;27.19;27.16;100153.94;5025456;28;959;-32
2022/12/15 09:51:34;;;;;;;;;;;;;;;27.32;27.08;100153.16;5015922;28;1160;-30
2022/12/15 09:53:59;;;;;;;;;;;;;;;27.68;26.36;100157.53;5014324;28;1267;-31
2022/12/15 09:56:32;;;;;;;;;;;;;;;27.34;26.99;100157.31;5015786;28;1968;-32
2022/12/15 09:59:00;;;;;;;;;;;;;;;27.25;27.43;100164.78;5014046;28;1081;-33
2022/12/15 10:01:28;;;;;;;;;;;;;;;27.35;27.14;100152.75;5013221;28;1145;-32
2022/12/15 10:04:04;;;;;;;;;;;;;;;27.71;26.49;100143.63;5011548;28;1208;-35
2022/12/15 10:06:32;;;;;;;;;;;;;;;27.74;26.37;100147.78;5012402;28;1588;-32
2022/12/15 10:09:02;;;;;;;;;;;;;;;27.31;26.67;100149.63;5015895;28;1065;-33
2022/12/15 10:11:46;;;;;;;;;;;;;;;27.23;27.08;100152.47;5013459;28;1054;-33
2022/12/15 10:14:18;;;;;;;;;;;;;;;27.63;26.55;100160.81;5013304;28;1161;-34
2022/12/15 10:16:52;;;;;;;;;;;;;;;27.72;26.58;100161.50;5015072;28;2092;-34
2022/12/15 10:19:23;;;;;;;;;;;;;;;27.41;26.98;100168.16;5015597;28;1148;-35
2022/12/15 10:21:48;;;;;;;;;;;;;;;27.34;26.97;100180.81;5013415;28;1068;-32
2022/12/15 10:24:15;;;;;;;;;;;;;;;27.55;26.84;100171.78;5015121;28;1159;-33
2022/12/15 10:26:40;;;;;;;;;;;;;;;27.94;26.27;100187.56;5014568;28;1434;-34
2022/12/15 10:29:09;;;;;;;;;;;;;;;27.50;26.95;100194.00;5015093;28;991;-33
2022/12/15 10:31:51;;;;;;;;;;;;;;;27.55;26.61;100196.09;5015567;28;1057;-33
2022/12/15 10:34:24;;;;;;;;;;;;;;;27.89;26.04;100193.59;5013729;28;1133;-32
2022/12/15 10:36:49;;;;;;;;;;;;;;;27.54;26.96;100188.19;5015478;28;1984;-33
2022/12/15 10:39:15;;;;;;;;;;;;;;;27.58;26.69;100195.69;5015278;28;1077;-33
2022/12/15 10:41:40;;;;;;;;;;;;;;;27.66;26.85;100208.19;5018532;28;1533;-32
2022/12/15 10:44:07;;;;;;;;;;;;;;;27.97;26.14;100214.19;5015577;28;1065;-31
2022/12/15 10:46:32;;;;;;;;;;;;;;;27.53;26.78;100217.06;5008352;28;2210;-34
2022/12/15 10:48:59;;;;;;;;;;;;;;;27.76;26.60;100221.38;5011124;28;1108;-35
2022/12/15 10:51:29;;;;;;;;;;;;;;;28.03;25.87;100232.31;5015353;28;1143;-30
2022/12/15 10:54:00;;;;;;;;;;;;;;;27.60;26.93;100242.28;5015628;28;1069;-29
2022/12/15 10:56:26;;;;;;;;;;;;;;;27.54;26.76;100245.78;5015736;28;1890;-31
2022/12/15 10:58:53;;;;;;;;;;;;;;;27.81;26.85;100245.13;5008494;28;1164;-31
2022/12/15 11:01:19;;;;;;;;;;;;;;;27.81;26.67;100248.63;5015402;28;1136;-35
2022/12/15 11:03:45;;;;;;;;;;;;;;;27.59;27.09;100242.47;5019236;28;1117;-33
2022/12/15 11:06:17;;;;;;;;;;;;;;;27.73;27.10;100238.84;5019227;28;1168;-31
2022/12/15 11:08:43;;;;;;;;;;;;;;;27.95;26.73;100240.59;5018875;28;1200;-34
2022/12/15 11:14:18;;;;;;;;;;;;;;;27.56;27.39;100259.06;5018977;28;947;-34
2022/12/15 11:16:53;;;;;;;;;;;;;;;27.94;26.73;100258.69;5012703;28;2210;-35
2022/12/15 11:19:21;;;;;;;;;;;;;;;27.83;27.23;100260.09;5015225;28;1189;-31
2022/12/15 11:21:47;;;;;;;;;;;;;;;27.52;27.78;100255.94;5017448;28;1267;-33
2022/12/15 11:24:20;;;;;;;;;;;;;;;28.10;26.79;100253.97;5016833;28;974;-30
2022/12/15 11:27:00;;;;;;;;;;;;;;;28.54;26.30;100246.44;5019447;28;1054;-32
2022/12/15 11:29:43;;;;;;;;;;;;;;;28.65;25.72;100245.00;5017992;28;1155;-30
2022/12/15 11:32:09;;;;;;;;;;;;;;;28.70;25.59;100249.78;5018978;28;1088;-34
2022/12/15 11:34:35;;;;;;;;;;;;;;;28.72;25.23;100251.25;5014602;28;1163;-31
2022/12/15 11:37:04;;;;;;;;;;;;;;;28.87;25.07;100261.06;5013957;28;1906;-33
2022/12/15 11:39:48;;;;;;;;;;;;;;;28.86;24.71;100262.09;4999008;28;1100;-32
2022/12/15 11:42:31;;;;;;;;;;;;;;;28.70;24.74;100272.28;4999203;28;1117;-30
2022/12/15 11:45:32;;;;;;;;;;;;;;;28.90;24.92;100270.63;5015253;28;1884;-33
2022/12/15 11:48:16;;;;;;;;;;;;;;;29.01;25.08;100280.88;4957427;29;1343;-30
2022/12/15 11:50:41;;;;;;;;;;;;;;;28.96;25.05;100277.94;5009176;28;1181;-33
2022/12/15 11:53:13;;;;;;;;;;;;;;;28.94;25.20;100275.44;5018619;28;1062;-32
2022/12/15 11:55:40;;;;;;;;;;;;;;;28.95;25.37;100287.94;5018375;28;1901;-34
2022/12/15 11:58:17;;;;;;;;;;;;;;;28.96;25.02;100292.28;5017347;28;1136;-30
2022/12/15 12:00:44;;;;;;;;;;;;;;;28.83;25.08;100301.25;5016787;28;951;-31
2022/12/15 12:03:10;;;;;;;;;;;;;;;28.97;25.21;100298.59;5016993;28;1151;-33
2022/12/15 12:05:41;;;;;;;;;;;;;;;28.94;25.15;100296.25;5018515;28;1283;-33
2022/12/15 12:08:06;;;;;;;;;;;;;;;29.01;24.99;100296.31;5018181;28;1109;-33
2022/12/15 12:10:48;;;;;;;;;;;;;;;28.82;25.21;100283.34;5017752;28;1176;-31
2022/12/15 12:13:32;;;;;;;;;;;;;;;29.18;24.79;100305.66;5010841;28;1155;-36
2022/12/15 12:16:00;;;;;;;;;;;;;;;29.30;24.53;100314.00;5014266;28;2158;-32
2022/12/15 12:18:26;;;;;;;;;;;;;;;29.23;24.68;100321.28;5017476;28;1065;-32
2022/12/15 12:21:00;;;;;;;;;;;;;;;29.33;24.35;100323.59;5016699;28;1251;-32
2022/12/15 12:23:28;;;;;;;;;;;;;;;29.21;24.53;100313.38;5011352;28;1092;-30
2022/12/15 12:25:59;;;;;;;;;;;;;;;29.38;24.18;100321.09;5012232;28;1191;-32
2022/12/15 12:28:30;;;;;;;;;;;;;;;29.37;24.18;100315.88;5007323;28;1121;-35
2022/12/15 12:30:56;;;;;;;;;;;;;;;29.51;24.10;100314.81;5007643;28;1164;-34
2022/12/15 12:33:29;;;;;;;;;;;;;;;29.38;24.08;100312.97;4999695;28;1183;-35
2022/12/15 12:35:56;;;;;;;;;;;;;;;29.03;24.04;100321.31;5006231;28;1902;-35
2022/12/15 12:38:23;;;;;;;;;;;;;;;29.14;24.08;100328.81;5014154;28;1233;-34
2022/12/15 12:41:12;;;;;;;;;;;;;;;29.08;23.96;100338.59;4997881;28;1129;-34
2022/12/15 12:43:39;;;;;;;;;;;;;;;29.18;23.97;100337.34;4997788;28;1121;-36
2022/12/15 12:46:07;;;;;;;;;;;;;;;29.23;24.13;100334.84;5010094;28;1838;-36
2022/12/15 12:48:40;;;;;;;;;;;;;;;29.27;24.02;100343.38;5008813;28;1218;-36
2022/12/15 12:51:12;;;;;;;;;;;;;;;29.21;24.04;100356.72;5017247;28;1176;-36
2022/12/15 12:53:37;;;;;;;;;;;;;;;29.18;24.08;100348.16;5017211;28;1172;-33
2022/12/15 12:56:03;;;;;;;;;;;;;;;29.27;23.94;100344.22;5017222;28;1906;-33
2022/12/15 12:58:33;;;;;;;;;;;;;;;29.33;23.89;100350.69;5018026;28;1093;-35
2022/12/15 13:01:11;;;;;;;;;;;;;;;29.37;23.72;100349.22;5015521;28;986;-32
2022/12/15 13:03:40;;;;;;;;;;;;;;;29.36;24.06;100354.88;5017061;28;1199;-34
2022/12/15 13:06:41;;;;;;;;;;;;;;;29.25;24.06;100350.88;5017275;28;1168;-35
2022/12/15 13:09:15;;;;;;;;;;;;;;;29.34;23.89;100355.88;5016745;28;1144;-34
2022/12/15 13:11:43;;;;;;;;;;;;;;;29.35;24.03;100362.16;5011630;28;1298;-36
2022/12/15 13:14:12;;;;;;;;;;;;;;;29.29;23.92;100363.84;5017053;28;1116;-33
2022/12/15 13:16:37;;;;;;;;;;;;;;;29.22;24.12;100373.81;5012606;28;2218;-32
2022/12/15 13:19:03;;;;;;;;;;;;;;;29.08;24.34;100371.09;5001547;28;1092;-36
2022/12/15 13:21:43;;;;;;;;;;;;;;;29.09;24.36;100382.75;5016769;28;1183;-33
2022/12/15 13:24:27;;;;;;;;;;;;;;;29.01;24.39;100388.38;5007864;28;1183;-35
2022/12/15 13:27:02;;;;;;;;;;;;;;;28.97;24.38;100393.34;5016699;28;1096;-38
2022/12/15 13:29:27;;;;;;;;;;;;;;;29.00;24.30;100394.81;5016701;28;1136;-33
2022/12/15 13:31:52;;;;;;;;;;;;;;;29.07;24.53;100396.50;5016656;28;1116;-34
2022/12/15 13:34:19;;;;;;;;;;;;;;;28.81;24.60;100397.25;5015400;28;1195;-33
2022/12/15 13:36:45;;;;;;;;;;;;;;;28.98;24.69;100407.72;5015118;28;1927;-36
2022/12/15 13:39:11;;;;;;;;;;;;;;;28.84;24.59;100403.06;5016676;28;1097;-34
2022/12/15 13:41:36;;;;;;;;;;;;;;;28.99;24.74;100403.97;5016276;28;1239;-36
2022/12/15 13:44:01;;;;;;;;;;;;;;;28.80;24.81;100404.50;5014998;28;1177;-34
2022/12/15 13:46:28;;;;;;;;;;;;;;;28.98;24.69;100418.56;5001977;28;2114;-32
2022/12/15 13:49:24;;;;;;;;;;;;;;;28.80;24.93;100431.59;5014968;28;885;-38
2022/12/15 13:51:49;;;;;;;;;;;;;;;28.65;25.24;100447.97;5011771;28;1285;-37
2022/12/15 13:54:24;;;;;;;;;;;;;;;28.72;24.91;100456.13;5015983;28;1199;-37
2022/12/15 13:56:51;;;;;;;;;;;;;;;28.77;24.87;100464.47;5015109;28;1973;-36
2022/12/15 13:59:26;;;;;;;;;;;;;;;28.70;25.17;100467.16;5016317;28;1087;-36
2022/12/15 14:01:51;;;;;;;;;;;;;;;28.59;25.32;100459.59;5016016;28;1169;-36
2022/12/15 14:04:17;;;;;;;;;;;;;;;28.58;25.15;100468.75;5016379;28;1159;-34
2022/12/15 14:06:46;;;;;;;;;;;;;;;28.33;25.27;100471.91;5015967;28;1223;-34
2022/12/15 14:09:12;;;;;;;;;;;;;;;28.21;25.35;100467.03;5015017;28;1120;-35
2022/12/15 14:11:38;;;;;;;;;;;;;;;28.03;25.57;100464.81;5013797;28;1167;-37
2022/12/15 14:14:04;;;;;;;;;;;;;;;27.84;25.53;100463.66;5013998;28;1129;-33
2022/12/15 14:16:30;;;;;;;;;;;;;;;27.21;26.55;100457.00;5010508;28;2244;-31
2022/12/15 14:19:07;;;;;;;;;;;;;;;26.95;27.13;100472.66;5011707;28;1402;-34
2022/12/15 14:21:33;;;;;;;;;;;;;;;27.33;26.58;100485.16;5015574;28;1188;-35
2022/12/15 14:23:59;;;;;;;;;;;;;;;27.37;26.81;100493.72;5012024;28;1200;-36
2022/12/15 14:26:26;;;;;;;;;;;;;;;27.52;26.71;100496.38;4995763;28;1180;-34
2022/12/15 14:28:57;;;;;;;;;;;;;;;27.72;26.64;100503.88;5012498;28;1400;-31
2022/12/15 14:31:22;;;;;;;;;;;;;;;28.01;26.28;100509.31;5015161;28;1259;-34
2022/12/15 14:33:48;;;;;;;;;;;;;;;28.21;25.67;100507.59;5014344;28;1440;-34
2022/12/15 14:36:14;;;;;;;;;;;;;;;28.17;25.95;100511.75;5019014;28;1910;-34
2022/12/15 14:38:48;;;;;;;;;;;;;;;27.99;26.17;100514.94;5019913;28;1279;-32
2022/12/15 14:41:33;;;;;;;;;;;;;;;28.33;25.61;100512.50;5018341;28;1204;-33
2022/12/15 14:43:59;;;;;;;;;;;;;;;28.28;26.10;100518.47;5019524;28;1256;-31
2022/12/15 14:46:24;;;;;;;;;;;;;;;28.58;25.48;100520.16;5003480;28;1831;-34
2022/12/15 14:48:54;;;;;;;;;;;;;;;28.41;25.42;100511.53;5001089;28;1260;-29
2022/12/15 14:51:19;;;;;;;;;;;;;;;28.28;25.95;100521.19;5016459;28;1140;-32
2022/12/15 14:53:46;;;;;;;;;;;;;;;28.47;25.96;100529.66;5011885;28;1179;-33
2022/12/15 14:56:21;;;;;;;;;;;;;;;28.53;25.83;100528.06;5018498;28;1952;-32
2022/12/15 14:58:58;;;;;;;;;;;;;;;28.71;24.97;100543.78;5005785;28;1120;-34
2022/12/15 15:01:32;;;;;;;;;;;;;;;28.20;26.16;100543.81;5004324;28;1172;-35
2022/12/15 15:04:01;;;;;;;;;;;;;;;28.22;26.00;100539.03;5016848;28;1161;-32
2022/12/15 15:06:28;;;;;;;;;;;;;;;28.57;25.72;100542.84;5019078;28;1259;-34
2022/12/15 15:08:53;;;;;;;;;;;;;;;28.75;25.57;100544.19;5019262;28;1208;-34
2022/12/15 15:11:22;;;;;;;;;;;;;;;28.98;24.87;100543.13;5017328;28;1171;-33
2022/12/15 15:13:47;;;;;;;;;;;;;;;28.98;24.76;100543.94;5014926;28;1232;-33
2022/12/15 15:16:14;;;;;;;;;;;;;;;27.90;26.97;100532.28;5010595;28;2383;-31